sensor_id;sensor_type;location;lat;lon;timestamp;temperature;humidity
13440;DHT22;6792;57.698;11.946;2023-04-24T00:01:46;16.80;48.30
13440;DHT22;6792;57.698;11.946;2023-04-24T00:04:15;16.80;48.30
13440;DHT22;6792;57.698;11.946;2023-04-24T00:06:44;16.80;48.30
13440;DHT22;6792;57.698;11.946;2023-04-24T00:09:15;16.80;48.30
13440;DHT22;6792;57.698;11.946;2023-04-24T00:11:44;16.80;48.30
13440;DHT22;6792;57.698;11.946;2023-04-24T00:14:14;16.80;47.70
13440;DHT22;6792;57.698;11.946;2023-04-24T00:16:43;16.80;48.30
13440;DHT22;6792;57.698;11.946;2023-04-24T00:19:12;16.80;48.20
13440;DHT22;6792;57.698;11.946;2023-04-24T00:21:41;16.80;48.20
13440;DHT22;6792;57.698;11.946;2023-04-24T00:24:11;16.80;48.20
13440;DHT22;6792;57.698;11.946;2023-04-24T00:26:40;16.80;48.20
13440;DHT22;6792;57.698;11.946;2023-04-24T00:29:09;16.80;48.30
13440;DHT22;6792;57.698;11.946;2023-04-24T00:31:38;16.80;48.20
13440;DHT22;6792;57.698;11.946;2023-04-24T00:34:08;16.80;48.20
13440;DHT22;6792;57.698;11.946;2023-04-24T00:36:38;16.80;47.70
13440;DHT22;6792;57.698;11.946;2023-04-24T00:39:07;16.80;48.20
13440;DHT22;6792;57.698;11.946;2023-04-24T00:41:37;16.80;48.70
13440;DHT22;6792;57.698;11.946;2023-04-24T00:44:06;16.80;48.10
13440;DHT22;6792;57.698;11.946;2023-04-24T00:46:37;16.80;48.10
13440;DHT22;6792;57.698;11.946;2023-04-24T00:49:06;16.80;48.10
13440;DHT22;6792;57.698;11.946;2023-04-24T00:51:36;16.80;48.10
13440;DHT22;6792;57.698;11.946;2023-04-24T00:54:05;16.70;48.00
13440;DHT22;6792;57.698;11.946;2023-04-24T00:56:34;16.70;48.00
13440;DHT22;6792;57.698;11.946;2023-04-24T00:59:04;16.70;48.00
13440;DHT22;6792;57.698;11.946;2023-04-24T01:01:33;16.70;48.00
13440;DHT22;6792;57.698;11.946;2023-04-24T01:04:03;16.60;48.00
13440;DHT22;6792;57.698;11.946;2023-04-24T01:06:34;16.60;48.10
13440;DHT22;6792;57.698;11.946;2023-04-24T01:09:04;16.60;48.10
13440;DHT22;6792;57.698;11.946;2023-04-24T01:11:35;16.60;47.80
13440;DHT22;6792;57.698;11.946;2023-04-24T01:14:05;16.60;48.20
13440;DHT22;6792;57.698;11.946;2023-04-24T01:16:34;16.50;48.20
13440;DHT22;6792;57.698;11.946;2023-04-24T01:19:08;16.50;48.20
13440;DHT22;6792;57.698;11.946;2023-04-24T01:21:39;16.40;47.70
13440;DHT22;6792;57.698;11.946;2023-04-24T01:24:09;16.40;48.30
13440;DHT22;6792;57.698;11.946;2023-04-24T01:26:39;16.50;48.40
13440;DHT22;6792;57.698;11.946;2023-04-24T01:29:08;16.50;48.50
13440;DHT22;6792;57.698;11.946;2023-04-24T01:31:38;16.40;48.40
13440;DHT22;6792;57.698;11.946;2023-04-24T01:34:07;16.40;48.40
13440;DHT22;6792;57.698;11.946;2023-04-24T01:36:36;16.40;48.40
13440;DHT22;6792;57.698;11.946;2023-04-24T01:39:06;16.50;48.00
13440;DHT22;6792;57.698;11.946;2023-04-24T01:41:36;16.50;48.50
13440;DHT22;6792;57.698;11.946;2023-04-24T01:44:05;16.50;48.50
13440;DHT22;6792;57.698;11.946;2023-04-24T01:46:34;16.50;48.50
13440;DHT22;6792;57.698;11.946;2023-04-24T01:49:04;16.50;48.50
13440;DHT22;6792;57.698;11.946;2023-04-24T01:51:33;16.40;48.50
13440;DHT22;6792;57.698;11.946;2023-04-24T01:54:02;16.50;48.50
13440;DHT22;6792;57.698;11.946;2023-04-24T01:56:33;16.50;48.50
13440;DHT22;6792;57.698;11.946;2023-04-24T01:59:03;16.50;48.60
13440;DHT22;6792;57.698;11.946;2023-04-24T02:01:35;16.50;48.60
13440;DHT22;6792;57.698;11.946;2023-04-24T02:04:06;16.50;48.60
13440;DHT22;6792;57.698;11.946;2023-04-24T02:06:35;16.50;48.60
13440;DHT22;6792;57.698;11.946;2023-04-24T02:09:05;16.50;48.60
13440;DHT22;6792;57.698;11.946;2023-04-24T02:11:34;16.40;48.60
13440;DHT22;6792;57.698;11.946;2023-04-24T02:14:03;16.40;48.60
13440;DHT22;6792;57.698;11.946;2023-04-24T02:16:32;16.40;48.60
13440;DHT22;6792;57.698;11.946;2023-04-24T02:19:03;16.50;48.70
13440;DHT22;6792;57.698;11.946;2023-04-24T02:21:32;16.50;48.70
13440;DHT22;6792;57.698;11.946;2023-04-24T02:24:02;16.50;48.70
13440;DHT22;6792;57.698;11.946;2023-04-24T02:26:31;16.50;48.70
13440;DHT22;6792;57.698;11.946;2023-04-24T02:29:00;16.50;48.60
13440;DHT22;6792;57.698;11.946;2023-04-24T02:31:29;16.50;48.70
13440;DHT22;6792;57.698;11.946;2023-04-24T02:33:59;16.50;48.60
13440;DHT22;6792;57.698;11.946;2023-04-24T02:36:28;16.50;48.60
13440;DHT22;6792;57.698;11.946;2023-04-24T02:38:58;16.50;48.60
13440;DHT22;6792;57.698;11.946;2023-04-24T02:41:27;16.50;48.60
13440;DHT22;6792;57.698;11.946;2023-04-24T02:43:58;16.50;48.00
13440;DHT22;6792;57.698;11.946;2023-04-24T02:46:28;16.50;48.60
13440;DHT22;6792;57.698;11.946;2023-04-24T02:48:57;16.50;48.60
13440;DHT22;6792;57.698;11.946;2023-04-24T02:51:27;16.50;48.60
13440;DHT22;6792;57.698;11.946;2023-04-24T02:53:56;16.50;48.60
13440;DHT22;6792;57.698;11.946;2023-04-24T02:56:25;16.50;48.60
13440;DHT22;6792;57.698;11.946;2023-04-24T02:58:54;16.50;48.50
13440;DHT22;6792;57.698;11.946;2023-04-24T03:01:23;16.50;48.50
13440;DHT22;6792;57.698;11.946;2023-04-24T03:03:53;16.50;48.50
13440;DHT22;6792;57.698;11.946;2023-04-24T03:06:22;16.50;48.50
13440;DHT22;6792;57.698;11.946;2023-04-24T03:08:51;16.60;48.50
13440;DHT22;6792;57.698;11.946;2023-04-24T03:11:20;16.60;48.50
13440;DHT22;6792;57.698;11.946;2023-04-24T03:13:49;16.60;48.40
13440;DHT22;6792;57.698;11.946;2023-04-24T03:16:18;16.60;48.50
13440;DHT22;6792;57.698;11.946;2023-04-24T03:18:47;16.60;48.40
13440;DHT22;6792;57.698;11.946;2023-04-24T03:21:17;16.60;48.50
13440;DHT22;6792;57.698;11.946;2023-04-24T03:23:46;16.60;48.40
13440;DHT22;6792;57.698;11.946;2023-04-24T03:26:15;16.60;48.30
13440;DHT22;6792;57.698;11.946;2023-04-24T03:28:44;16.60;48.30
13440;DHT22;6792;57.698;11.946;2023-04-24T03:31:14;16.60;48.30
13440;DHT22;6792;57.698;11.946;2023-04-24T03:33:46;16.60;48.30
13440;DHT22;6792;57.698;11.946;2023-04-24T03:36:16;16.60;48.30
13440;DHT22;6792;57.698;11.946;2023-04-24T03:38:49;16.60;48.20
13440;DHT22;6792;57.698;11.946;2023-04-24T03:41:18;16.60;48.20
13440;DHT22;6792;57.698;11.946;2023-04-24T03:43:47;16.60;48.20
13440;DHT22;6792;57.698;11.946;2023-04-24T03:46:17;16.60;48.20
13440;DHT22;6792;57.698;11.946;2023-04-24T03:48:46;16.60;48.20
13440;DHT22;6792;57.698;11.946;2023-04-24T03:51:16;16.60;48.70
13440;DHT22;6792;57.698;11.946;2023-04-24T03:53:45;16.60;48.20
13440;DHT22;6792;57.698;11.946;2023-04-24T03:56:14;16.60;48.20
13440;DHT22;6792;57.698;11.946;2023-04-24T03:58:44;16.60;48.20
13440;DHT22;6792;57.698;11.946;2023-04-24T04:01:13;16.60;48.20
13440;DHT22;6792;57.698;11.946;2023-04-24T04:03:43;16.60;48.20
13440;DHT22;6792;57.698;11.946;2023-04-24T04:06:12;16.60;48.20
13440;DHT22;6792;57.698;11.946;2023-04-24T04:08:42;16.60;47.70
13440;DHT22;6792;57.698;11.946;2023-04-24T04:11:11;16.60;48.10
13440;DHT22;6792;57.698;11.946;2023-04-24T04:13:40;16.60;48.10
13440;DHT22;6792;57.698;11.946;2023-04-24T04:16:10;16.60;48.10
13440;DHT22;6792;57.698;11.946;2023-04-24T04:18:40;16.70;48.10
13440;DHT22;6792;57.698;11.946;2023-04-24T04:21:09;16.70;48.00
13440;DHT22;6792;57.698;11.946;2023-04-24T04:23:38;16.70;48.00
13440;DHT22;6792;57.698;11.946;2023-04-24T04:26:08;16.70;47.40
13440;DHT22;6792;57.698;11.946;2023-04-24T04:28:37;16.70;47.90
13440;DHT22;6792;57.698;11.946;2023-04-24T04:31:07;16.80;48.00
13440;DHT22;6792;57.698;11.946;2023-04-24T04:33:36;16.80;48.00
13440;DHT22;6792;57.698;11.946;2023-04-24T04:36:07;16.80;47.90
13440;DHT22;6792;57.698;11.946;2023-04-24T04:38:36;16.80;47.90
13440;DHT22;6792;57.698;11.946;2023-04-24T04:41:05;16.80;47.90
13440;DHT22;6792;57.698;11.946;2023-04-24T04:43:35;16.80;47.90
13440;DHT22;6792;57.698;11.946;2023-04-24T04:46:04;16.80;47.90
13440;DHT22;6792;57.698;11.946;2023-04-24T04:48:33;16.80;47.80
13440;DHT22;6792;57.698;11.946;2023-04-24T04:51:03;16.80;48.40
13440;DHT22;6792;57.698;11.946;2023-04-24T04:53:32;16.80;47.90
13440;DHT22;6792;57.698;11.946;2023-04-24T04:56:01;16.80;47.80
13440;DHT22;6792;57.698;11.946;2023-04-24T04:58:31;16.80;48.20
13440;DHT22;6792;57.698;11.946;2023-04-24T05:01:00;16.90;47.80
13440;DHT22;6792;57.698;11.946;2023-04-24T05:03:30;16.90;47.80
13440;DHT22;6792;57.698;11.946;2023-04-24T05:06:00;16.90;47.80
13440;DHT22;6792;57.698;11.946;2023-04-24T05:08:30;16.90;47.20
13440;DHT22;6792;57.698;11.946;2023-04-24T05:10:59;16.90;47.70
13440;DHT22;6792;57.698;11.946;2023-04-24T05:13:28;16.90;47.70
13440;DHT22;6792;57.698;11.946;2023-04-24T05:15:58;16.90;47.70
13440;DHT22;6792;57.698;11.946;2023-04-24T05:18:27;16.90;47.70
13440;DHT22;6792;57.698;11.946;2023-04-24T05:20:57;16.90;47.70
13440;DHT22;6792;57.698;11.946;2023-04-24T05:23:26;17.00;47.70
13440;DHT22;6792;57.698;11.946;2023-04-24T05:25:55;17.00;47.60
13440;DHT22;6792;57.698;11.946;2023-04-24T05:28:24;17.00;47.60
13440;DHT22;6792;57.698;11.946;2023-04-24T05:30:56;17.00;47.60
13440;DHT22;6792;57.698;11.946;2023-04-24T05:33:27;17.00;47.60
13440;DHT22;6792;57.698;11.946;2023-04-24T05:35:56;17.00;47.50
13440;DHT22;6792;57.698;11.946;2023-04-24T05:38:25;17.00;47.60
13440;DHT22;6792;57.698;11.946;2023-04-24T05:40:54;17.00;47.60
13440;DHT22;6792;57.698;11.946;2023-04-24T05:43:23;17.00;47.50
13440;DHT22;6792;57.698;11.946;2023-04-24T05:45:53;17.00;47.50
13440;DHT22;6792;57.698;11.946;2023-04-24T05:48:23;17.00;47.40
13440;DHT22;6792;57.698;11.946;2023-04-24T05:50:52;17.00;47.40
13440;DHT22;6792;57.698;11.946;2023-04-24T05:53:21;17.00;47.40
13440;DHT22;6792;57.698;11.946;2023-04-24T05:55:50;17.10;47.50
13440;DHT22;6792;57.698;11.946;2023-04-24T05:58:20;17.00;47.30
13440;DHT22;6792;57.698;11.946;2023-04-24T06:00:49;17.00;47.30
13440;DHT22;6792;57.698;11.946;2023-04-24T06:03:18;17.00;46.80
13440;DHT22;6792;57.698;11.946;2023-04-24T06:05:47;17.00;47.40
13440;DHT22;6792;57.698;11.946;2023-04-24T06:08:18;17.00;47.40
13440;DHT22;6792;57.698;11.946;2023-04-24T06:10:47;17.00;47.30
13440;DHT22;6792;57.698;11.946;2023-04-24T06:13:20;17.00;47.30
13440;DHT22;6792;57.698;11.946;2023-04-24T06:15:49;17.10;47.40
13440;DHT22;6792;57.698;11.946;2023-04-24T06:18:18;17.10;47.30
13440;DHT22;6792;57.698;11.946;2023-04-24T06:20:48;17.10;47.30
13440;DHT22;6792;57.698;11.946;2023-04-24T06:23:17;17.10;47.30
13440;DHT22;6792;57.698;11.946;2023-04-24T06:25:46;17.10;46.70
13440;DHT22;6792;57.698;11.946;2023-04-24T06:28:18;17.10;47.20
13440;DHT22;6792;57.698;11.946;2023-04-24T06:30:48;17.10;47.30
13440;DHT22;6792;57.698;11.946;2023-04-24T06:33:17;17.10;47.90
13440;DHT22;6792;57.698;11.946;2023-04-24T06:35:47;17.10;47.20
13440;DHT22;6792;57.698;11.946;2023-04-24T06:38:16;17.10;47.20
13440;DHT22;6792;57.698;11.946;2023-04-24T06:40:47;17.10;47.10
13440;DHT22;6792;57.698;11.946;2023-04-24T06:43:16;17.10;47.10
13440;DHT22;6792;57.698;11.946;2023-04-24T06:45:49;17.20;47.20
13440;DHT22;6792;57.698;11.946;2023-04-24T06:48:18;17.20;47.10
13440;DHT22;6792;57.698;11.946;2023-04-24T06:50:47;17.20;47.10
13440;DHT22;6792;57.698;11.946;2023-04-24T06:53:19;17.20;47.00
13440;DHT22;6792;57.698;11.946;2023-04-24T06:55:48;17.20;47.00
13440;DHT22;6792;57.698;11.946;2023-04-24T06:58:18;17.30;46.90
13440;DHT22;6792;57.698;11.946;2023-04-24T07:00:47;17.40;46.90
13440;DHT22;6792;57.698;11.946;2023-04-24T07:03:17;17.40;46.90
13440;DHT22;6792;57.698;11.946;2023-04-24T07:05:46;17.40;46.80
13440;DHT22;6792;57.698;11.946;2023-04-24T07:08:15;17.40;46.20
13440;DHT22;6792;57.698;11.946;2023-04-24T07:10:45;17.50;46.80
13440;DHT22;6792;57.698;11.946;2023-04-24T07:13:14;17.40;46.60
13440;DHT22;6792;57.698;11.946;2023-04-24T07:15:47;17.50;46.20
13440;DHT22;6792;57.698;11.946;2023-04-24T07:18:18;17.50;46.70
13440;DHT22;6792;57.698;11.946;2023-04-24T07:23:24;17.50;46.80
13440;DHT22;6792;57.698;11.946;2023-04-24T07:25:54;17.50;46.80
13440;DHT22;6792;57.698;11.946;2023-04-24T07:28:23;17.50;46.80
13440;DHT22;6792;57.698;11.946;2023-04-24T07:30:52;17.50;46.90
13440;DHT22;6792;57.698;11.946;2023-04-24T07:33:22;17.50;46.90
13440;DHT22;6792;57.698;11.946;2023-04-24T07:35:51;17.50;46.90
13440;DHT22;6792;57.698;11.946;2023-04-24T07:38:20;17.40;46.90
13440;DHT22;6792;57.698;11.946;2023-04-24T07:40:50;17.40;47.00
13440;DHT22;6792;57.698;11.946;2023-04-24T07:43:19;17.50;47.10
13440;DHT22;6792;57.698;11.946;2023-04-24T07:45:49;17.40;46.50
13440;DHT22;6792;57.698;11.946;2023-04-24T07:48:18;17.40;46.60
13440;DHT22;6792;57.698;11.946;2023-04-24T07:50:49;17.40;47.10
13440;DHT22;6792;57.698;11.946;2023-04-24T07:53:18;17.30;47.20
13440;DHT22;6792;57.698;11.946;2023-04-24T07:55:47;17.30;47.30
13440;DHT22;6792;57.698;11.946;2023-04-24T07:58:19;17.30;47.40
13440;DHT22;6792;57.698;11.946;2023-04-24T08:00:49;17.30;46.90
13440;DHT22;6792;57.698;11.946;2023-04-24T08:03:21;17.20;47.50
13440;DHT22;6792;57.698;11.946;2023-04-24T08:05:51;17.20;47.20
13440;DHT22;6792;57.698;11.946;2023-04-24T08:08:22;17.10;47.80
13440;DHT22;6792;57.698;11.946;2023-04-24T08:10:52;17.10;47.40
13440;DHT22;6792;57.698;11.946;2023-04-24T08:13:24;17.10;48.00
13440;DHT22;6792;57.698;11.946;2023-04-24T08:15:53;17.00;47.50
13440;DHT22;6792;57.698;11.946;2023-04-24T08:18:23;17.10;48.20
13440;DHT22;6792;57.698;11.946;2023-04-24T08:20:54;17.10;48.20
13440;DHT22;6792;57.698;11.946;2023-04-24T08:23:27;17.00;48.80
13440;DHT22;6792;57.698;11.946;2023-04-24T08:25:58;17.00;48.40
13440;DHT22;6792;57.698;11.946;2023-04-24T08:28:28;17.00;49.00
13440;DHT22;6792;57.698;11.946;2023-04-24T08:31:01;17.00;48.90
13440;DHT22;6792;57.698;11.946;2023-04-24T08:33:30;16.90;48.40
13440;DHT22;6792;57.698;11.946;2023-04-24T08:36:03;16.90;49.00
13440;DHT22;6792;57.698;11.946;2023-04-24T08:38:33;16.90;49.00
13440;DHT22;6792;57.698;11.946;2023-04-24T08:41:02;16.90;49.00
13440;DHT22;6792;57.698;11.946;2023-04-24T08:43:34;16.80;49.10
13440;DHT22;6792;57.698;11.946;2023-04-24T08:46:05;16.80;48.60
13440;DHT22;6792;57.698;11.946;2023-04-24T08:48:34;16.80;49.30
13440;DHT22;6792;57.698;11.946;2023-04-24T08:51:05;16.70;49.40
13440;DHT22;6792;57.698;11.946;2023-04-24T08:53:36;16.70;49.50
13440;DHT22;6792;57.698;11.946;2023-04-24T08:56:06;16.60;49.50
13440;DHT22;6792;57.698;11.946;2023-04-24T08:58:36;16.60;49.60
13440;DHT22;6792;57.698;11.946;2023-04-24T09:01:06;16.60;49.70
13440;DHT22;6792;57.698;11.946;2023-04-24T09:03:35;16.50;49.70
13440;DHT22;6792;57.698;11.946;2023-04-24T09:06:07;16.50;49.70
13440;DHT22;6792;57.698;11.946;2023-04-24T09:08:37;16.50;49.80
13440;DHT22;6792;57.698;11.946;2023-04-24T09:11:09;16.50;49.90
13440;DHT22;6792;57.698;11.946;2023-04-24T09:13:39;16.50;49.80
13440;DHT22;6792;57.698;11.946;2023-04-24T09:16:11;16.40;49.80
13440;DHT22;6792;57.698;11.946;2023-04-24T09:18:40;16.40;49.90
13440;DHT22;6792;57.698;11.946;2023-04-24T09:21:10;16.40;49.80
13440;DHT22;6792;57.698;11.946;2023-04-24T09:23:40;16.40;49.80
13440;DHT22;6792;57.698;11.946;2023-04-24T09:26:10;16.40;49.80
13440;DHT22;6792;57.698;11.946;2023-04-24T09:28:41;16.40;49.80
13440;DHT22;6792;57.698;11.946;2023-04-24T09:31:13;16.40;49.70
13440;DHT22;6792;57.698;11.946;2023-04-24T09:33:54;16.40;49.70
13440;DHT22;6792;57.698;11.946;2023-04-24T09:36:29;16.40;49.90
13440;DHT22;6792;57.698;11.946;2023-04-24T09:39:01;16.40;49.80
13440;DHT22;6792;57.698;11.946;2023-04-24T09:41:33;16.40;49.70
13440;DHT22;6792;57.698;11.946;2023-04-24T09:44:11;16.40;49.70
13440;DHT22;6792;57.698;11.946;2023-04-24T09:46:42;16.40;49.60
13440;DHT22;6792;57.698;11.946;2023-04-24T09:49:14;16.40;49.60
13440;DHT22;6792;57.698;11.946;2023-04-24T09:51:44;16.50;49.70
13440;DHT22;6792;57.698;11.946;2023-04-24T09:54:18;16.50;49.10
13440;DHT22;6792;57.698;11.946;2023-04-24T09:56:50;16.60;49.80
13440;DHT22;6792;57.698;11.946;2023-04-24T09:59:20;16.60;49.60
13440;DHT22;6792;57.698;11.946;2023-04-24T10:01:49;16.60;49.60
13440;DHT22;6792;57.698;11.946;2023-04-24T10:04:21;16.70;49.60
13440;DHT22;6792;57.698;11.946;2023-04-24T10:06:53;16.70;49.50
13440;DHT22;6792;57.698;11.946;2023-04-24T10:09:24;16.70;49.40
13440;DHT22;6792;57.698;11.946;2023-04-24T10:11:54;16.70;48.80
13440;DHT22;6792;57.698;11.946;2023-04-24T10:14:24;16.70;49.40
13440;DHT22;6792;57.698;11.946;2023-04-24T10:16:55;16.70;49.30
13440;DHT22;6792;57.698;11.946;2023-04-24T10:19:26;16.70;49.40
13440;DHT22;6792;57.698;11.946;2023-04-24T10:21:57;16.70;49.40
13440;DHT22;6792;57.698;11.946;2023-04-24T10:24:27;16.70;49.40
13440;DHT22;6792;57.698;11.946;2023-04-24T10:26:58;16.70;49.40
13440;DHT22;6792;57.698;11.946;2023-04-24T10:29:27;16.70;49.40
13440;DHT22;6792;57.698;11.946;2023-04-24T10:31:58;16.70;49.40
13440;DHT22;6792;57.698;11.946;2023-04-24T10:34:27;16.80;49.50
13440;DHT22;6792;57.698;11.946;2023-04-24T10:36:58;16.80;49.00
13440;DHT22;6792;57.698;11.946;2023-04-24T10:39:27;16.80;49.60
13440;DHT22;6792;57.698;11.946;2023-04-24T10:41:56;16.80;49.60
13440;DHT22;6792;57.698;11.946;2023-04-24T10:44:27;16.90;49.70
13440;DHT22;6792;57.698;11.946;2023-04-24T10:46:56;17.00;49.30
13440;DHT22;6792;57.698;11.946;2023-04-24T10:49:32;17.00;49.80
13440;DHT22;6792;57.698;11.946;2023-04-24T10:52:03;17.10;49.80
13440;DHT22;6792;57.698;11.946;2023-04-24T10:54:40;17.20;49.90
13440;DHT22;6792;57.698;11.946;2023-04-24T11:00:16;17.40;49.30
13440;DHT22;6792;57.698;11.946;2023-04-24T11:02:48;17.50;49.80
13440;DHT22;6792;57.698;11.946;2023-04-24T11:05:18;17.50;49.70
13440;DHT22;6792;57.698;11.946;2023-04-24T11:08:12;17.60;49.70
13440;DHT22;6792;57.698;11.946;2023-04-24T11:10:46;17.70;49.20
13440;DHT22;6792;57.698;11.946;2023-04-24T11:13:21;17.70;49.80
13440;DHT22;6792;57.698;11.946;2023-04-24T11:16:12;17.80;50.40
13440;DHT22;6792;57.698;11.946;2023-04-24T11:18:43;17.90;49.80
13440;DHT22;6792;57.698;11.946;2023-04-24T11:21:17;18.00;49.60
13440;DHT22;6792;57.698;11.946;2023-04-24T11:23:47;18.00;49.50
13440;DHT22;6792;57.698;11.946;2023-04-24T11:26:21;18.10;49.50
13440;DHT22;6792;57.698;11.946;2023-04-24T11:28:51;18.20;49.40
13440;DHT22;6792;57.698;11.946;2023-04-24T11:31:40;18.20;49.40
13440;DHT22;6792;57.698;11.946;2023-04-24T11:34:13;18.30;48.70
13440;DHT22;6792;57.698;11.946;2023-04-24T11:36:45;18.30;49.30
13440;DHT22;6792;57.698;11.946;2023-04-24T11:39:15;18.30;49.20
13440;DHT22;6792;57.698;11.946;2023-04-24T11:41:44;18.40;49.10
13440;DHT22;6792;57.698;11.946;2023-04-24T11:44:19;18.40;49.00
13440;DHT22;6792;57.698;11.946;2023-04-24T11:46:49;18.50;49.60
13440;DHT22;6792;57.698;11.946;2023-04-24T11:49:18;18.50;49.50
13440;DHT22;6792;57.698;11.946;2023-04-24T11:51:48;18.60;48.90
13440;DHT22;6792;57.698;11.946;2023-04-24T11:54:17;18.60;48.80
13440;DHT22;6792;57.698;11.946;2023-04-24T11:56:48;18.70;48.80
13440;DHT22;6792;57.698;11.946;2023-04-24T11:59:18;18.80;48.70
13440;DHT22;6792;57.698;11.946;2023-04-24T12:01:50;18.90;48.60
13440;DHT22;6792;57.698;11.946;2023-04-24T12:04:20;18.90;48.50
13440;DHT22;6792;57.698;11.946;2023-04-24T12:07:01;19.00;48.50
13440;DHT22;6792;57.698;11.946;2023-04-24T12:09:42;19.10;48.40
13440;DHT22;6792;57.698;11.946;2023-04-24T12:12:12;19.10;47.80
13440;DHT22;6792;57.698;11.946;2023-04-24T12:14:49;19.10;48.40
13440;DHT22;6792;57.698;11.946;2023-04-24T12:17:23;19.10;48.20
13440;DHT22;6792;57.698;11.946;2023-04-24T12:19:50;19.10;47.50
13440;DHT22;6792;57.698;11.946;2023-04-24T12:22:19;19.20;48.10
13440;DHT22;6792;57.698;11.946;2023-04-24T12:24:59;19.20;47.90
13440;DHT22;6792;57.698;11.946;2023-04-24T12:27:33;19.30;48.00
13440;DHT22;6792;57.698;11.946;2023-04-24T12:30:05;19.30;47.80
13440;DHT22;6792;57.698;11.946;2023-04-24T12:32:34;19.30;47.70
13440;DHT22;6792;57.698;11.946;2023-04-24T12:35:06;19.40;47.60
13440;DHT22;6792;57.698;11.946;2023-04-24T12:37:35;19.40;47.70
13440;DHT22;6792;57.698;11.946;2023-04-24T12:40:08;19.50;47.50
13440;DHT22;6792;57.698;11.946;2023-04-24T12:42:42;19.50;46.80
13440;DHT22;6792;57.698;11.946;2023-04-24T12:45:12;19.50;46.60
13440;DHT22;6792;57.698;11.946;2023-04-24T12:47:42;19.50;46.60
13440;DHT22;6792;57.698;11.946;2023-04-24T12:50:13;19.50;47.10
13440;DHT22;6792;57.698;11.946;2023-04-24T12:52:44;19.40;47.00
13440;DHT22;6792;57.698;11.946;2023-04-24T12:55:14;19.40;47.00
13440;DHT22;6792;57.698;11.946;2023-04-24T12:57:44;19.50;47.70
13440;DHT22;6792;57.698;11.946;2023-04-24T13:00:18;19.50;47.00
13440;DHT22;6792;57.698;11.946;2023-04-24T13:02:47;19.50;47.00
13440;DHT22;6792;57.698;11.946;2023-04-24T13:05:17;19.50;46.90
13440;DHT22;6792;57.698;11.946;2023-04-24T13:07:46;19.50;46.90
13440;DHT22;6792;57.698;11.946;2023-04-24T13:10:15;19.50;46.90
13440;DHT22;6792;57.698;11.946;2023-04-24T13:12:45;19.50;46.90
13440;DHT22;6792;57.698;11.946;2023-04-24T13:15:14;19.50;46.90
13440;DHT22;6792;57.698;11.946;2023-04-24T13:17:44;19.50;46.90
13440;DHT22;6792;57.698;11.946;2023-04-24T13:20:14;19.40;46.30
13440;DHT22;6792;57.698;11.946;2023-04-24T13:22:43;19.40;46.90
13440;DHT22;6792;57.698;11.946;2023-04-24T13:25:12;19.40;46.40
13440;DHT22;6792;57.698;11.946;2023-04-24T13:27:43;19.50;47.00
13440;DHT22;6792;57.698;11.946;2023-04-24T13:30:14;19.40;47.00
13440;DHT22;6792;57.698;11.946;2023-04-24T13:32:44;19.50;47.00
13440;DHT22;6792;57.698;11.946;2023-04-24T13:35:17;19.40;46.90
13440;DHT22;6792;57.698;11.946;2023-04-24T13:37:46;19.50;47.10
13440;DHT22;6792;57.698;11.946;2023-04-24T13:40:15;19.50;47.10
13440;DHT22;6792;57.698;11.946;2023-04-24T13:42:44;19.50;47.10
13440;DHT22;6792;57.698;11.946;2023-04-24T13:45:14;19.50;47.00
13440;DHT22;6792;57.698;11.946;2023-04-24T13:47:47;19.50;47.00
13440;DHT22;6792;57.698;11.946;2023-04-24T13:50:17;19.50;47.00
13440;DHT22;6792;57.698;11.946;2023-04-24T13:52:46;19.50;47.00
13440;DHT22;6792;57.698;11.946;2023-04-24T13:55:15;19.50;47.00
13440;DHT22;6792;57.698;11.946;2023-04-24T13:57:45;19.60;47.10
13440;DHT22;6792;57.698;11.946;2023-04-24T14:00:19;19.50;47.10
13440;DHT22;6792;57.698;11.946;2023-04-24T14:02:48;19.50;47.10
13440;DHT22;6792;57.698;11.946;2023-04-24T14:05:18;19.50;46.50
13440;DHT22;6792;57.698;11.946;2023-04-24T14:07:49;19.50;47.00
13440;DHT22;6792;57.698;11.946;2023-04-24T14:10:18;19.50;47.10
13440;DHT22;6792;57.698;11.946;2023-04-24T14:12:48;19.50;46.60
13440;DHT22;6792;57.698;11.946;2023-04-24T14:15:17;19.50;47.40
13440;DHT22;6792;57.698;11.946;2023-04-24T14:17:48;19.50;47.30
13440;DHT22;6792;57.698;11.946;2023-04-24T14:20:18;19.50;47.40
13440;DHT22;6792;57.698;11.946;2023-04-24T14:22:50;19.50;47.50
13440;DHT22;6792;57.698;11.946;2023-04-24T14:25:19;19.40;47.50
13440;DHT22;6792;57.698;11.946;2023-04-24T14:27:50;19.40;47.60
13440;DHT22;6792;57.698;11.946;2023-04-24T14:30:20;19.40;47.70
13440;DHT22;6792;57.698;11.946;2023-04-24T14:32:49;19.50;47.70
13440;DHT22;6792;57.698;11.946;2023-04-24T14:35:18;19.50;47.70
13440;DHT22;6792;57.698;11.946;2023-04-24T14:37:47;19.50;47.80
13440;DHT22;6792;57.698;11.946;2023-04-24T14:40:17;19.50;47.80
13440;DHT22;6792;57.698;11.946;2023-04-24T14:42:49;19.50;47.80
13440;DHT22;6792;57.698;11.946;2023-04-24T14:45:22;19.40;47.80
13440;DHT22;6792;57.698;11.946;2023-04-24T14:47:51;19.40;47.80
13440;DHT22;6792;57.698;11.946;2023-04-24T14:50:20;19.40;47.90
13440;DHT22;6792;57.698;11.946;2023-04-24T14:52:50;19.40;47.90
13440;DHT22;6792;57.698;11.946;2023-04-24T14:55:19;19.40;48.00
13440;DHT22;6792;57.698;11.946;2023-04-24T14:57:48;19.40;48.00
13440;DHT22;6792;57.698;11.946;2023-04-24T15:00:20;19.40;48.00
13440;DHT22;6792;57.698;11.946;2023-04-24T15:02:51;19.40;48.00
13440;DHT22;6792;57.698;11.946;2023-04-24T15:05:20;19.40;48.10
13440;DHT22;6792;57.698;11.946;2023-04-24T15:07:49;19.40;48.10
13440;DHT22;6792;57.698;11.946;2023-04-24T15:10:19;19.40;48.20
13440;DHT22;6792;57.698;11.946;2023-04-24T15:12:49;19.40;48.20
13440;DHT22;6792;57.698;11.946;2023-04-24T15:15:19;19.40;48.20
13440;DHT22;6792;57.698;11.946;2023-04-24T15:17:48;19.40;48.20
13440;DHT22;6792;57.698;11.946;2023-04-24T15:20:17;19.40;48.20
13440;DHT22;6792;57.698;11.946;2023-04-24T15:22:47;19.40;48.20
13440;DHT22;6792;57.698;11.946;2023-04-24T15:25:16;19.30;48.20
13440;DHT22;6792;57.698;11.946;2023-04-24T15:27:46;19.30;48.20
13440;DHT22;6792;57.698;11.946;2023-04-24T15:30:15;19.30;48.30
13440;DHT22;6792;57.698;11.946;2023-04-24T15:32:44;19.30;48.30
13440;DHT22;6792;57.698;11.946;2023-04-24T15:35:14;19.30;48.30
13440;DHT22;6792;57.698;11.946;2023-04-24T15:37:43;19.30;48.30
13440;DHT22;6792;57.698;11.946;2023-04-24T15:40:14;19.30;48.30
13440;DHT22;6792;57.698;11.946;2023-04-24T15:42:44;19.30;48.40
13440;DHT22;6792;57.698;11.946;2023-04-24T15:45:13;19.30;48.30
13440;DHT22;6792;57.698;11.946;2023-04-24T15:47:42;19.30;48.40
13440;DHT22;6792;57.698;11.946;2023-04-24T15:50:13;19.30;48.40
13440;DHT22;6792;57.698;11.946;2023-04-24T15:52:44;19.30;48.50
13440;DHT22;6792;57.698;11.946;2023-04-24T15:55:14;19.20;48.50